createdAt,value
2023-04-26T06:25:28.117Z,100.00
2023-04-26T06:28:00.159Z,100.00
2023-04-26T06:36:05.875Z,100.00
2023-04-26T06:44:19.074Z,100.00
2023-04-26T06:49:39.010Z,100.00
2023-04-26T06:52:09.086Z,100.00
2023-04-26T06:54:45.948Z,100.00
2023-04-26T06:57:23.356Z,100.00
2023-04-26T06:59:57.591Z,100.00
2023-04-26T07:02:28.648Z,100.00
2023-04-26T07:04:56.253Z,100.00
2023-04-26T07:10:10.715Z,100.00
2023-04-26T07:12:41.687Z,100.00
2023-04-26T07:23:48.795Z,100.00
2023-04-26T07:26:27.620Z,100.00
2023-04-26T07:29:04.555Z,100.00
2023-04-26T07:31:37.645Z,100.00
2023-04-26T07:34:20.794Z,100.00
2023-04-26T07:39:37.545Z,100.00
2023-04-26T07:42:12.446Z,100.00
2023-04-26T08:47:25.620Z,100.00
2023-04-26T08:50:01.101Z,100.00
2023-04-26T08:52:35.934Z,100.00
2023-04-26T08:57:53.998Z,100.00
2023-04-26T09:24:52.815Z,100.00
2023-04-26T09:27:21.119Z,100.00
2023-04-26T09:38:02.124Z,75.50
2023-04-26T09:40:57.568Z,99.33
2023-04-26T09:43:24.856Z,74.80
2023-04-26T09:45:57.515Z,88.24
2023-04-26T09:48:37.253Z,80.34
2023-04-26T09:51:04.271Z,75.97
2023-04-26T09:53:40.202Z,75.15
2023-04-26T09:56:10.369Z,78.93
2023-04-26T09:59:02.572Z,100.00
2023-04-26T10:01:31.576Z,99.52
2023-04-26T10:04:03.665Z,100.00
2023-04-26T10:06:31.602Z,100.00
2023-04-26T10:08:58.957Z,92.78
2023-04-26T10:11:32.159Z,100.00
2023-04-26T10:19:23.793Z,100.00
2023-04-26T10:21:56.053Z,100.00
2023-04-26T10:27:08.884Z,100.00
2023-04-26T10:29:54.760Z,100.00
2023-04-26T10:32:23.281Z,100.00
2023-04-26T10:38:18.471Z,100.00
2023-04-26T10:40:53.428Z,100.00
2023-04-26T10:43:30.589Z,100.00
2023-04-26T10:46:01.627Z,95.55
2023-04-26T10:48:31.483Z,96.35
2023-04-26T10:51:22.655Z,80.19
2023-04-26T10:53:54.953Z,84.95
2023-04-26T10:56:30.381Z,100.00
2023-04-26T10:59:36.332Z,88.35
2023-04-26T11:02:27.569Z,88.54
2023-04-26T11:04:57.711Z,68.83
2023-04-26T11:10:27.412Z,71.81
2023-04-26T11:13:07.881Z,69.50
2023-04-26T11:15:45.003Z,68.70
2023-04-26T11:18:12.168Z,55.40
2023-04-26T11:20:47.299Z,53.36
2023-04-26T11:26:07.535Z,36.53
2023-04-26T11:28:40.755Z,44.77
2023-04-26T11:31:09.677Z,39.70
2023-04-26T11:33:38.947Z,40.75
2023-04-26T11:36:08.510Z,40.80
2023-04-26T11:38:37.114Z,35.01
2023-04-26T11:41:04.766Z,40.19
2023-04-26T11:43:37.853Z,42.18
2023-04-26T11:46:09.453Z,48.13
2023-04-26T11:48:38.025Z,49.36
2023-04-26T11:51:07.005Z,45.18
2023-04-26T11:53:42.337Z,40.63
2023-04-26T11:56:35.520Z,47.79
2023-04-26T11:59:04.950Z,57.42
2023-04-26T12:01:32.626Z,57.60
2023-04-26T12:04:01.042Z,53.96
2023-04-26T12:06:45.807Z,61.51
2023-04-26T12:09:13.639Z,59.71
2023-04-26T12:11:52.630Z,68.31
2023-04-26T12:14:21.816Z,71.93
2023-04-26T12:16:49.756Z,71.63
2023-04-26T12:19:26.998Z,71.27
2023-04-26T12:21:55.184Z,62.78
2023-04-26T12:24:38.281Z,70.91
2023-04-26T12:27:09.387Z,63.46
2023-04-26T12:29:40.145Z,63.10
2023-04-26T12:32:08.530Z,57.48
2023-04-26T12:34:37.322Z,54.11
2023-04-26T12:37:06.473Z,48.29
2023-04-26T12:39:33.601Z,47.90
2023-04-26T12:44:42.084Z,48.76
2023-04-26T12:47:10.991Z,47.70
2023-04-26T12:49:38.779Z,47.74
2023-04-26T12:52:05.954Z,39.98
2023-04-26T12:54:36.930Z,35.85
2023-04-26T12:57:04.315Z,36.29
2023-04-26T12:59:31.392Z,38.43
2023-04-26T13:01:59.291Z,43.97
2023-04-26T13:04:27.718Z,48.15
2023-04-26T13:06:56.403Z,47.83
2023-04-26T13:09:26.170Z,47.05
2023-04-26T13:11:54.289Z,55.13
2023-04-26T13:17:11.578Z,48.27
2023-04-26T13:19:39.610Z,48.56
2023-04-26T13:22:13.448Z,54.20
2023-04-26T13:24:41.057Z,53.32
2023-04-26T13:27:08.966Z,57.81
2023-04-26T13:29:40.568Z,57.18
2023-04-26T13:32:11.708Z,47.90
2023-04-26T13:34:39.798Z,44.01
2023-04-26T13:37:07.165Z,46.54
2023-04-26T13:39:35.527Z,52.84
2023-04-26T13:42:06.505Z,46.80
2023-04-26T13:44:34.127Z,50.00
2023-04-26T13:47:03.855Z,44.66
2023-04-26T13:49:32.100Z,38.98
2023-04-26T13:51:59.833Z,36.67
2023-04-26T13:54:28.782Z,40.08
2023-04-26T13:56:55.603Z,35.10
2023-04-26T13:59:22.677Z,33.97
2023-04-26T14:01:51.873Z,37.32
2023-04-26T14:04:20.926Z,37.37
2023-04-26T14:06:48.361Z,38.87
2023-04-26T14:09:15.715Z,35.43
2023-04-26T14:11:42.810Z,38.68
2023-04-26T14:14:09.760Z,35.42
2023-04-26T14:16:37.062Z,38.35
2023-04-26T14:19:04.544Z,35.86
2023-04-26T14:21:33.491Z,41.87
2023-04-26T14:24:01.109Z,40.83
2023-04-26T14:26:28.191Z,42.78
2023-04-26T14:28:55.315Z,38.10
2023-04-26T14:31:24.803Z,34.30
2023-04-26T14:33:52.413Z,35.31
2023-04-26T14:36:20.534Z,36.14
2023-04-26T14:38:47.574Z,38.53
2023-04-26T14:41:17.549Z,37.67
2023-04-26T14:43:46.206Z,36.45
2023-04-26T14:46:13.671Z,38.78
2023-04-26T14:48:40.743Z,43.27
2023-04-26T14:51:09.783Z,44.42
2023-04-26T14:53:37.643Z,46.91
2023-04-26T14:56:08.076Z,48.48
2023-04-26T14:58:35.386Z,52.38
2023-04-26T15:01:05.747Z,55.53
2023-04-26T15:03:34.290Z,51.73
2023-04-26T15:06:01.589Z,47.44
2023-04-26T15:08:28.922Z,45.17
2023-04-26T15:10:57.284Z,52.03
2023-04-26T15:13:26.889Z,48.23
2023-04-26T15:15:54.661Z,43.08
2023-04-26T15:18:21.817Z,49.67
2023-04-26T15:20:49.407Z,49.04
2023-04-26T15:23:18.408Z,45.58
2023-04-26T15:25:46.404Z,45.33
2023-04-26T15:31:06.196Z,49.36
2023-04-26T15:33:34.083Z,49.92
2023-04-26T15:36:01.620Z,59.99
2023-04-26T15:38:32.360Z,56.84
2023-04-26T15:41:00.348Z,58.72
2023-04-26T15:48:54.416Z,62.34
2023-04-26T15:51:22.229Z,59.70
2023-04-26T15:53:51.142Z,65.48
2023-04-26T16:01:42.297Z,61.04
2023-04-26T16:04:10.552Z,59.77
2023-04-26T16:06:39.887Z,59.25
2023-04-26T16:22:53.844Z,48.97
2023-04-26T16:28:03.508Z,59.00
2023-04-26T16:43:56.536Z,66.81
2023-04-26T16:52:08.147Z,75.10
2023-04-26T16:54:43.519Z,63.97
2023-04-26T17:00:01.366Z,74.93
2023-04-26T17:33:06.390Z,79.49
2023-04-26T17:38:18.416Z,85.20
2023-04-26T17:57:08.741Z,93.40
